Time;durP1;ratioP1;P1;durP2;ratioP2;P2;SDS_P1;SDS_P2;PMS_P1;PMS_P2;Temp;Humidity;BMP_temperature;BMP_pressure;BME280_temperature;BME280_humidity;BME280_pressure;Samples;Min_cycle;Max_cycle;Signal;HPM_P1;HPM_P2
2022/03/18 00:02:12;;;;;;;46.17;17.40;;;;;;;;;;5072577;28;20437;-67
2022/03/18 00:04:38;;;;;;;53.10;20.30;;;;;;;;;;5070938;28;20072;-67
2022/03/18 00:07:04;;;;;;;48.95;19.63;;;;;;;;;;5070427;28;20056;-67
2022/03/18 00:09:31;;;;;;;49.35;21.15;;;;;;;;;;5072429;28;20044;-67
2022/03/18 00:11:57;;;;;;;50.75;21.55;;;;;;;;;;5072385;28;20472;-67
2022/03/18 00:14:23;;;;;;;56.35;23.88;;;;;;;;;;5070110;28;20044;-66
2022/03/18 00:16:49;;;;;;;80.75;28.77;;;;;;;;;;5070720;28;20758;-66
2022/03/18 00:19:16;;;;;;;64.78;26.13;;;;;;;;;;5072256;28;20404;-66
2022/03/18 00:21:42;;;;;;;75.07;26.30;;;;;;;;;;5069891;28;20043;-66
2022/03/18 00:24:09;;;;;;;58.88;24.95;;;;;;;;;;5072123;28;20056;-66
2022/03/18 00:26:35;;;;;;;60.97;24.20;;;;;;;;;;5083762;28;20105;-66
2022/03/18 00:29:02;;;;;;;63.00;22.88;;;;;;;;;;5091349;28;20039;-66
2022/03/18 00:31:30;;;;;;;57.45;23.20;;;;;;;;;;5090620;28;20048;-66
2022/03/18 00:33:56;;;;;;;48.38;19.98;;;;;;;;;;5091909;28;20055;-66
2022/03/18 00:36:23;;;;;;;54.13;20.75;;;;;;;;;;5091394;28;20050;-66
2022/03/18 00:38:50;;;;;;;50.10;20.77;;;;;;;;;;5090203;28;20439;-66
2022/03/18 00:41:16;;;;;;;51.42;18.15;;;;;;;;;;5090560;28;20039;-66
2022/03/18 00:43:42;;;;;;;49.45;20.63;;;;;;;;;;5090227;28;20641;-66
2022/03/18 00:46:08;;;;;;;58.33;21.13;;;;;;;;;;5090499;28;20123;-66
2022/03/18 00:54:03;;;;;;;57.63;22.02;;;;;;;;;;5090227;28;20047;-66
2022/03/18 00:56:29;;;;;;;50.92;21.52;;;;;;;;;;5090111;28;20040;-66
2022/03/18 00:58:55;;;;;;;55.15;22.25;;;;;;;;;;5090703;28;20050;-66
2022/03/18 01:01:21;;;;;;;62.03;24.88;;;;;;;;;;5090182;28;20119;-66
2022/03/18 01:03:47;;;;;;;66.03;26.02;;;;;;;;;;5090405;28;20039;-66
2022/03/18 01:06:13;;;;;;;69.93;25.75;;;;;;;;;;5089351;28;20132;-66
2022/03/18 01:08:39;;;;;;;67.07;26.40;;;;;;;;;;5090391;28;20126;-66
2022/03/18 01:11:05;;;;;;;77.18;29.63;;;;;;;;;;5090317;28;20047;-67
2022/03/18 01:13:31;;;;;;;62.55;25.10;;;;;;;;;;5089497;28;20530;-66
2022/03/18 01:15:57;;;;;;;69.72;26.77;;;;;;;;;;5091172;28;20624;-66
2022/03/18 01:18:23;;;;;;;51.25;23.05;;;;;;;;;;5091415;28;20047;-66
2022/03/18 01:20:49;;;;;;;50.42;21.08;;;;;;;;;;5089491;28;20101;-66
2022/03/18 01:23:16;;;;;;;54.30;21.52;;;;;;;;;;5090291;28;20044;-66
2022/03/18 01:25:42;;;;;;;49.75;19.73;;;;;;;;;;5085311;28;20037;-66
2022/03/18 01:28:08;;;;;;;45.50;17.95;;;;;;;;;;5069106;28;20492;-66
2022/03/18 01:30:34;;;;;;;46.90;19.85;;;;;;;;;;5069521;28;20048;-66
2022/03/18 01:33:00;;;;;;;44.75;20.50;;;;;;;;;;5071192;28;20052;-66
2022/03/18 01:35:27;;;;;;;44.30;20.20;;;;;;;;;;5068808;28;20442;-66
2022/03/18 01:37:53;;;;;;;59.45;24.30;;;;;;;;;;5069780;28;20040;-66
2022/03/18 01:40:19;;;;;;;97.50;38.25;;;;;;;;;;5071362;28;20440;-66
2022/03/18 01:42:45;;;;;;;129.32;49.38;;;;;;;;;;5069306;28;20051;-66
2022/03/18 01:45:11;;;;;;;114.68;45.00;;;;;;;;;;5069556;28;20076;-66
2022/03/18 01:47:42;;;;;;;158.45;60.63;;;;;;;;;;5070954;28;20036;-66
2022/03/18 01:50:13;;;;;;;157.00;68.83;;;;;;;;;;5069559;28;20076;-66
2022/03/18 01:52:39;;;;;;;185.43;79.22;;;;;;;;;;5073525;28;20078;-66
2022/03/18 01:55:05;;;;;;;209.05;82.55;;;;;;;;;;5073247;28;20452;-66
2022/03/18 01:57:31;;;;;;;199.98;80.93;;;;;;;;;;5073706;28;20033;-66
2022/03/18 01:59:58;;;;;;;188.80;76.80;;;;;;;;;;5073349;28;20382;-66
2022/03/18 02:02:24;;;;;;;201.85;81.85;;;;;;;;;;5073330;28;20085;-66
2022/03/18 02:04:50;;;;;;;220.77;87.57;;;;;;;;;;5073161;28;20519;-66
2022/03/18 02:07:17;;;;;;;199.98;81.60;;;;;;;;;;5074456;28;20051;-66
2022/03/18 02:09:44;;;;;;;196.80;83.93;;;;;;;;;;5073086;28;20045;-66
2022/03/18 02:12:10;;;;;;;202.20;83.95;;;;;;;;;;5073407;28;20048;-66
2022/03/18 02:14:43;;;;;;;205.05;80.78;;;;;;;;;;5073914;28;20483;-66
2022/03/18 02:17:11;;;;;;;188.85;78.07;;;;;;;;;;5072804;28;20044;-66
2022/03/18 02:19:37;;;;;;;192.43;78.45;;;;;;;;;;5072688;28;20380;-66
2022/03/18 02:22:05;;;;;;;197.38;78.82;;;;;;;;;;5072868;28;20475;-66
2022/03/18 02:24:32;;;;;;;166.30;71.85;;;;;;;;;;5075099;28;20037;-66
2022/03/18 02:26:58;;;;;;;161.77;68.78;;;;;;;;;;5078955;28;20052;-66
2022/03/18 02:29:24;;;;;;;141.75;60.45;;;;;;;;;;5072408;28;20446;-66
2022/03/18 02:31:50;;;;;;;148.55;63.38;;;;;;;;;;5073733;28;20589;-66
2022/03/18 02:34:16;;;;;;;153.13;67.43;;;;;;;;;;5072746;28;20479;-66
2022/03/18 02:36:42;;;;;;;141.45;61.08;;;;;;;;;;5071754;28;20040;-66
2022/03/18 02:39:08;;;;;;;137.23;57.65;;;;;;;;;;5073790;28;20513;-66
2022/03/18 02:41:35;;;;;;;160.63;63.47;;;;;;;;;;5074022;28;20120;-66
2022/03/18 02:44:01;;;;;;;141.98;59.67;;;;;;;;;;5073478;28;20037;-66
2022/03/18 02:46:27;;;;;;;131.68;58.95;;;;;;;;;;5072973;28;20418;-66
2022/03/18 02:48:53;;;;;;;131.70;58.92;;;;;;;;;;5073629;28;20048;-66
2022/03/18 02:51:20;;;;;;;134.38;58.35;;;;;;;;;;5071835;28;20040;-66
2022/03/18 02:53:46;;;;;;;132.93;59.17;;;;;;;;;;5072384;28;20045;-66
2022/03/18 02:56:12;;;;;;;144.18;57.80;;;;;;;;;;5072121;28;20490;-66
2022/03/18 02:58:38;;;;;;;116.30;51.40;;;;;;;;;;5073137;28;20036;-66
2022/03/18 03:01:04;;;;;;;122.10;51.85;;;;;;;;;;5073498;28;20098;-66
2022/03/18 03:03:31;;;;;;;108.70;48.20;;;;;;;;;;5072330;28;20490;-66
2022/03/18 03:08:42;;;;;;;108.40;46.45;;;;;;;;;;5073703;28;20044;-66
2022/03/18 03:11:08;;;;;;;111.15;46.88;;;;;;;;;;5072011;28;20387;-66
2022/03/18 03:13:34;;;;;;;105.80;47.25;;;;;;;;;;5072828;28;20125;-66
2022/03/18 03:16:01;;;;;;;108.60;46.85;;;;;;;;;;5071757;28;20090;-66
2022/03/18 03:18:28;;;;;;;91.70;40.38;;;;;;;;;;5072066;28;20483;-66
2022/03/18 03:20:54;;;;;;;89.13;40.30;;;;;;;;;;5072823;28;20388;-66
2022/03/18 03:23:23;;;;;;;91.30;38.17;;;;;;;;;;5073450;28;20119;-66
2022/03/18 03:25:50;;;;;;;88.30;35.20;;;;;;;;;;5076902;28;20044;-66
2022/03/18 03:28:17;;;;;;;90.25;38.90;;;;;;;;;;5092833;28;20040;-66
2022/03/18 03:30:44;;;;;;;81.32;35.33;;;;;;;;;;5091994;28;20445;-66
2022/03/18 03:33:10;;;;;;;79.78;36.78;;;;;;;;;;5093324;28;20487;-66
2022/03/18 03:35:36;;;;;;;87.68;38.97;;;;;;;;;;5090939;28;20054;-66
2022/03/18 03:38:03;;;;;;;84.90;38.15;;;;;;;;;;5093173;28;20036;-66
2022/03/18 03:40:29;;;;;;;86.13;39.92;;;;;;;;;;5091767;28;20066;-67
2022/03/18 03:42:55;;;;;;;78.13;35.70;;;;;;;;;;5090971;28;20046;-66
2022/03/18 03:45:21;;;;;;;81.93;35.05;;;;;;;;;;5091412;28;20040;-66
2022/03/18 03:47:47;;;;;;;76.15;32.95;;;;;;;;;;5091617;28;20040;-66
2022/03/18 03:50:14;;;;;;;79.65;34.90;;;;;;;;;;5092370;28;20048;-66
2022/03/18 03:52:40;;;;;;;71.85;33.70;;;;;;;;;;5091573;28;20044;-66
2022/03/18 03:55:07;;;;;;;70.50;32.92;;;;;;;;;;5092843;28;20084;-66
2022/03/18 03:57:33;;;;;;;69.55;31.20;;;;;;;;;;5091801;28;20043;-66
2022/03/18 03:59:59;;;;;;;70.10;31.05;;;;;;;;;;5091230;28;20119;-66
2022/03/18 04:02:29;;;;;;;64.65;29.00;;;;;;;;;;5091507;28;20082;-66
2022/03/18 04:04:57;;;;;;;70.30;30.90;;;;;;;;;;5092004;28;20603;-66
2022/03/18 04:07:23;;;;;;;63.60;27.98;;;;;;;;;;5091148;28;20127;-66
2022/03/18 04:09:49;;;;;;;66.78;28.15;;;;;;;;;;5091087;28;20758;-66
2022/03/18 04:12:15;;;;;;;51.63;25.08;;;;;;;;;;5091846;28;20273;-66
2022/03/18 04:14:41;;;;;;;52.58;22.85;;;;;;;;;;5090525;28;20040;-66
2022/03/18 04:17:07;;;;;;;49.72;22.48;;;;;;;;;;5091911;28;20387;-66
2022/03/18 04:19:33;;;;;;;50.60;23.25;;;;;;;;;;5091631;28;20070;-66
2022/03/18 04:21:59;;;;;;;41.08;20.15;;;;;;;;;;5092255;28;20467;-66
2022/03/18 04:24:25;;;;;;;42.45;20.35;;;;;;;;;;5090723;28;20048;-66
2022/03/18 04:26:51;;;;;;;44.00;20.13;;;;;;;;;;5075676;28;20410;-66
2022/03/18 04:29:17;;;;;;;47.38;21.83;;;;;;;;;;5070585;28;20049;-66
2022/03/18 04:31:44;;;;;;;36.80;17.02;;;;;;;;;;5071675;28;20487;-66
2022/03/18 04:34:11;;;;;;;36.28;16.95;;;;;;;;;;5069722;28;20125;-66
2022/03/18 04:36:37;;;;;;;35.50;16.35;;;;;;;;;;5053852;28;20094;-66
2022/03/18 04:39:03;;;;;;;37.47;17.20;;;;;;;;;;5070282;28;20138;-66
2022/03/18 04:41:29;;;;;;;39.08;17.00;;;;;;;;;;5071313;28;20447;-66
2022/03/18 04:43:55;;;;;;;38.38;17.95;;;;;;;;;;5070421;28;20669;-66
2022/03/18 04:46:21;;;;;;;34.22;16.58;;;;;;;;;;5070182;28;20052;-66
2022/03/18 04:48:48;;;;;;;39.72;17.10;;;;;;;;;;5069531;28;20109;-66
2022/03/18 04:51:14;;;;;;;35.13;17.45;;;;;;;;;;5070171;28;20041;-66
2022/03/18 04:53:40;;;;;;;33.65;16.70;;;;;;;;;;5071526;28;20432;-66
2022/03/18 04:57:15;;;;;;;38.40;17.52;;;;;;;;;;5069212;28;20089;-66
2022/03/18 04:58:52;;;;;;;38.45;17.77;;;;;;;;;;5071019;28;20041;-66
2022/03/18 05:01:20;;;;;;;40.33;18.63;;;;;;;;;;5071469;28;20555;-66
2022/03/18 05:03:47;;;;;;;33.63;16.77;;;;;;;;;;5070748;28;20049;-66
2022/03/18 05:06:13;;;;;;;27.92;16.63;;;;;;;;;;5069665;28;20131;-66
2022/03/18 05:08:39;;;;;;;32.80;16.60;;;;;;;;;;5071383;28;20445;-66
2022/03/18 05:11:05;;;;;;;36.90;17.52;;;;;;;;;;5070553;28;20056;-66
2022/03/18 05:13:31;;;;;;;34.00;17.38;;;;;;;;;;5070895;28;20040;-66
2022/03/18 05:15:57;;;;;;;40.05;18.83;;;;;;;;;;5069684;28;20040;-66
2022/03/18 05:18:23;;;;;;;37.63;17.77;;;;;;;;;;5068993;28;20041;-66
2022/03/18 05:20:50;;;;;;;40.58;18.13;;;;;;;;;;5069692;28;20028;-66
2022/03/18 05:23:17;;;;;;;41.85;18.42;;;;;;;;;;5070261;28;20463;-66
2022/03/18 05:25:44;;;;;;;34.28;16.88;;;;;;;;;;5074572;28;20044;-66
2022/03/18 05:28:10;;;;;;;37.15;16.83;;;;;;;;;;5091534;28;20063;-66
2022/03/18 05:30:37;;;;;;;35.08;16.13;;;;;;;;;;5089774;28;20142;-66
2022/03/18 05:33:04;;;;;;;35.40;16.13;;;;;;;;;;5090575;28;20043;-66
2022/03/18 05:35:30;;;;;;;29.38;14.18;;;;;;;;;;5091321;28;20055;-66
2022/03/18 05:37:56;;;;;;;33.08;14.60;;;;;;;;;;5090968;28;20042;-66
2022/03/18 05:40:22;;;;;;;28.00;13.00;;;;;;;;;;5089376;28;20414;-66
2022/03/18 05:42:48;;;;;;;26.50;13.20;;;;;;;;;;5091446;28;20527;-66
2022/03/18 05:45:14;;;;;;;22.10;11.20;;;;;;;;;;5089714;28;20040;-66
2022/03/18 05:47:41;;;;;;;25.63;12.65;;;;;;;;;;5088885;28;20048;-66
2022/03/18 05:50:08;;;;;;;22.95;11.50;;;;;;;;;;5089279;28;20044;-66
2022/03/18 05:52:37;;;;;;;25.77;12.27;;;;;;;;;;5089811;28;20052;-66
2022/03/18 05:55:04;;;;;;;26.85;12.10;;;;;;;;;;5089927;28;20052;-66
2022/03/18 05:57:30;;;;;;;25.80;12.95;;;;;;;;;;5089227;28;20046;-66
2022/03/18 05:59:57;;;;;;;24.45;12.75;;;;;;;;;;5089641;28;20044;-66
2022/03/18 06:02:23;;;;;;;23.77;12.30;;;;;;;;;;5088823;28;20063;-66
2022/03/18 06:04:49;;;;;;;26.70;12.00;;;;;;;;;;5090999;28;20817;-66
2022/03/18 06:07:16;;;;;;;22.00;12.25;;;;;;;;;;5072278;28;20429;-66
2022/03/18 06:12:28;;;;;;;24.38;11.20;;;;;;;;;;5090782;28;20047;-66
2022/03/18 06:14:54;;;;;;;24.48;11.30;;;;;;;;;;5089348;28;20066;-66
2022/03/18 06:17:20;;;;;;;20.98;10.77;;;;;;;;;;5088467;28;20044;-66
2022/03/18 06:19:46;;;;;;;26.05;11.15;;;;;;;;;;5091057;28;20169;-66
2022/03/18 06:22:12;;;;;;;18.23;10.50;;;;;;;;;;5089299;28;20204;-66
2022/03/18 06:24:38;;;;;;;17.77;9.82;;;;;;;;;;5072230;28;20044;-66
2022/03/18 06:27:05;;;;;;;18.33;10.77;;;;;;;;;;5073138;28;20098;-66
2022/03/18 06:29:31;;;;;;;23.42;9.88;;;;;;;;;;5069419;28;20041;-66
2022/03/18 06:32:01;;;;;;;18.73;10.32;;;;;;;;;;5069739;28;20059;-66
2022/03/18 06:34:27;;;;;;;19.27;9.40;;;;;;;;;;5070500;28;20051;-66
2022/03/18 06:36:54;;;;;;;18.33;9.52;;;;;;;;;;5071919;28;20551;-66
2022/03/18 06:39:22;;;;;;;18.65;10.40;;;;;;;;;;5073473;28;20479;-66
2022/03/18 06:41:48;;;;;;;19.65;9.60;;;;;;;;;;5072498;28;20490;-66
2022/03/18 06:44:14;;;;;;;17.00;9.95;;;;;;;;;;5072545;28;20437;-66
2022/03/18 06:46:40;;;;;;;20.50;10.07;;;;;;;;;;5072977;28;20180;-66
2022/03/18 06:49:07;;;;;;;18.42;10.32;;;;;;;;;;5073751;28;20044;-66
2022/03/18 06:51:33;;;;;;;19.23;10.90;;;;;;;;;;5073761;28;20559;-66
2022/03/18 06:53:59;;;;;;;17.83;10.43;;;;;;;;;;5071604;28;20044;-66
2022/03/18 06:56:27;;;;;;;23.60;9.68;;;;;;;;;;5073376;28;20452;-66
2022/03/18 06:58:53;;;;;;;14.48;9.73;;;;;;;;;;5073934;28;20438;-66
2022/03/18 07:01:23;;;;;;;19.85;10.65;;;;;;;;;;5072980;28;20467;-66
2022/03/18 07:03:49;;;;;;;19.20;10.93;;;;;;;;;;5073622;28;20546;-66
2022/03/18 07:06:15;;;;;;;17.90;10.43;;;;;;;;;;5073079;28;20085;-66
2022/03/18 07:08:41;;;;;;;19.08;10.68;;;;;;;;;;5071557;28;20052;-66
2022/03/18 07:11:13;;;;;;;19.45;9.77;;;;;;;;;;5073188;28;20072;-66
2022/03/18 07:13:40;;;;;;;16.95;10.18;;;;;;;;;;5071802;28;20392;-66
2022/03/18 07:18:51;;;;;;;17.13;10.52;;;;;;;;;;5071974;28;20040;-66
2022/03/18 07:21:17;;;;;;;24.75;13.38;;;;;;;;;;5073234;28;20029;-66
2022/03/18 07:23:43;;;;;;;22.95;14.75;;;;;;;;;;5072618;28;20040;-66
2022/03/18 07:26:09;;;;;;;28.67;15.95;;;;;;;;;;5079395;28;20108;-66
2022/03/18 07:28:35;;;;;;;27.63;16.42;;;;;;;;;;5093187;28;20036;-66
2022/03/18 07:31:01;;;;;;;25.02;15.50;;;;;;;;;;5087001;28;20055;-67
2022/03/18 07:33:27;;;;;;;30.52;16.02;;;;;;;;;;5089957;28;20039;-66
2022/03/18 07:35:53;;;;;;;33.65;15.85;;;;;;;;;;5084973;28;20092;-66
2022/03/18 07:38:20;;;;;;;29.63;14.70;;;;;;;;;;5090742;28;20036;-66
2022/03/18 07:40:46;;;;;;;27.83;15.48;;;;;;;;;;5091745;28;20147;-66
2022/03/18 07:43:13;;;;;;;27.45;15.38;;;;;;;;;;5091354;28;20127;-66
2022/03/18 07:45:39;;;;;;;26.88;15.65;;;;;;;;;;5086881;28;20185;-67
2022/03/18 07:48:07;;;;;;;27.17;16.38;;;;;;;;;;5085034;28;20043;-66
2022/03/18 07:50:34;;;;;;;33.28;16.63;;;;;;;;;;5086472;28;20455;-65
2022/03/18 07:53:01;;;;;;;26.10;15.93;;;;;;;;;;5085561;28;20097;-65
2022/03/18 07:55:27;;;;;;;29.40;15.40;;;;;;;;;;5091927;28;20093;-65
2022/03/18 07:57:54;;;;;;;28.13;14.98;;;;;;;;;;5091663;28;20035;-65
2022/03/18 08:00:21;;;;;;;25.60;14.70;;;;;;;;;;5091601;28;20040;-65
2022/03/18 08:02:48;;;;;;;28.98;15.00;;;;;;;;;;5092058;28;20429;-65
2022/03/18 08:05:14;;;;;;;29.42;15.00;;;;;;;;;;5091526;28;20054;-65
2022/03/18 08:07:41;;;;;;;23.88;14.77;;;;;;;;;;5089581;28;20047;-66
2022/03/18 08:10:08;;;;;;;25.50;14.88;;;;;;;;;;5091712;28;20036;-65
2022/03/18 08:12:35;;;;;;;30.63;15.10;;;;;;;;;;5091416;28;20055;-66
2022/03/18 08:15:03;;;;;;;31.70;15.43;;;;;;;;;;5090704;28;20047;-66
2022/03/18 08:17:29;;;;;;;28.23;15.60;;;;;;;;;;5091080;28;20036;-65
2022/03/18 08:19:56;;;;;;;25.15;15.05;;;;;;;;;;5091451;28;20036;-64
2022/03/18 08:22:22;;;;;;;27.55;15.48;;;;;;;;;;5090479;28;20078;-65
2022/03/18 08:24:49;;;;;;;24.88;15.35;;;;;;;;;;5091197;28;20056;-65
2022/03/18 08:27:15;;;;;;;24.10;14.77;;;;;;;;;;5090459;28;20040;-65
2022/03/18 08:29:41;;;;;;;24.98;14.57;;;;;;;;;;5091127;28;20043;-65
2022/03/18 08:32:08;;;;;;;29.48;16.00;;;;;;;;;;5090628;28;20097;-65
2022/03/18 08:34:35;;;;;;;28.70;14.85;;;;;;;;;;5090913;28;20047;-65
2022/03/18 08:37:03;;;;;;;27.35;15.40;;;;;;;;;;5090759;28;20637;-67
2022/03/18 08:39:29;;;;;;;32.30;15.70;;;;;;;;;;5091002;28;20040;-66
2022/03/18 08:41:55;;;;;;;29.90;15.90;;;;;;;;;;5091353;28;20089;-66
2022/03/18 08:44:21;;;;;;;23.55;14.93;;;;;;;;;;5084937;28;20123;-66
2022/03/18 08:46:47;;;;;;;28.60;16.33;;;;;;;;;;5088043;28;20039;-66
2022/03/18 08:49:13;;;;;;;28.10;15.73;;;;;;;;;;5090086;28;20039;-67
2022/03/18 08:51:40;;;;;;;28.15;17.27;;;;;;;;;;5090982;28;20071;-66
2022/03/18 08:54:06;;;;;;;32.42;17.42;;;;;;;;;;5090487;28;20098;-66
2022/03/18 08:56:32;;;;;;;32.25;15.95;;;;;;;;;;5090691;28;20081;-67
2022/03/18 08:58:58;;;;;;;24.17;15.75;;;;;;;;;;5090271;28;20370;-66
2022/03/18 09:01:25;;;;;;;31.92;15.90;;;;;;;;;;5090630;28;20036;-66
2022/03/18 09:03:53;;;;;;;28.35;15.65;;;;;;;;;;5090920;28;20043;-66
2022/03/18 09:06:20;;;;;;;28.15;15.90;;;;;;;;;;5090979;28;20044;-66
2022/03/18 09:08:46;;;;;;;28.83;15.38;;;;;;;;;;5089941;28;20044;-66
2022/03/18 09:11:12;;;;;;;25.40;14.15;;;;;;;;;;5090901;28;20047;-66
2022/03/18 09:13:38;;;;;;;26.75;14.25;;;;;;;;;;5090879;28;20517;-65
2022/03/18 09:16:04;;;;;;;28.30;15.25;;;;;;;;;;5089733;28;20032;-66
2022/03/18 09:18:31;;;;;;;26.25;15.48;;;;;;;;;;5090498;28;20119;-66
2022/03/18 09:20:57;;;;;;;31.33;15.50;;;;;;;;;;5089505;28;20398;-66
2022/03/18 09:23:23;;;;;;;25.55;14.30;;;;;;;;;;5090250;28;20120;-66
2022/03/18 09:25:49;;;;;;;26.50;14.48;;;;;;;;;;5090602;28;20056;-66
2022/03/18 09:28:16;;;;;;;31.67;15.77;;;;;;;;;;5090380;28;20047;-66
2022/03/18 09:30:42;;;;;;;27.13;14.32;;;;;;;;;;5089999;28;20075;-66
2022/03/18 09:33:08;;;;;;;25.85;14.88;;;;;;;;;;5090473;28;20044;-66
2022/03/18 09:35:35;;;;;;;23.02;12.82;;;;;;;;;;5090093;28;20130;-66
2022/03/18 09:38:01;;;;;;;28.88;13.85;;;;;;;;;;5089471;28;20033;-65
2022/03/18 09:40:27;;;;;;;24.85;12.60;;;;;;;;;;5089951;28;20115;-66
2022/03/18 09:43:04;;;;;;;27.75;13.13;;;;;;;;;;5090780;28;20040;-66
2022/03/18 09:45:31;;;;;;;28.75;12.65;;;;;;;;;;5082280;28;20127;-66
2022/03/18 09:47:59;;;;;;;28.30;13.05;;;;;;;;;;5084479;28;20036;-66
2022/03/18 09:50:25;;;;;;;26.33;13.18;;;;;;;;;;5090526;28;20129;-66
2022/03/18 09:52:51;;;;;;;25.35;13.05;;;;;;;;;;5089795;28;20036;-66
2022/03/18 09:55:17;;;;;;;19.70;12.45;;;;;;;;;;5090374;28;20048;-66
2022/03/18 09:57:43;;;;;;;28.38;13.10;;;;;;;;;;5090059;28;20036;-66
2022/03/18 10:00:10;;;;;;;30.92;12.77;;;;;;;;;;5089775;28;21025;-66
2022/03/18 10:02:36;;;;;;;31.65;13.85;;;;;;;;;;5089040;28;20040;-65
2022/03/18 10:05:16;;;;;;;30.20;12.02;;;;;;;;;;5090159;28;20071;-66
2022/03/18 10:07:56;;;;;;;23.70;11.90;;;;;;;;;;5086611;28;20036;-67
2022/03/18 10:10:23;;;;;;;18.77;10.50;;;;;;;;;;5089827;28;20047;-66
2022/03/18 10:12:50;;;;;;;23.50;11.38;;;;;;;;;;5093620;28;20050;-66
2022/03/18 10:15:20;;;;;;;22.17;11.30;;;;;;;;;;5093070;28;20109;-67
2022/03/18 10:17:52;;;;;;;22.85;9.80;;;;;;;;;;5093852;28;20044;-67
2022/03/18 10:20:25;;;;;;;23.23;9.68;;;;;;;;;;5092445;28;20050;-67
2022/03/18 10:22:52;;;;;;;19.65;10.23;;;;;;;;;;5093291;28;20374;-67
2022/03/18 10:25:35;;;;;;;22.33;10.50;;;;;;;;;;5093470;28;20070;-68
2022/03/18 10:28:00;;;;;;;;;;;;;;;;;;5093967;28;20036;-67
2022/03/18 10:30:27;;;;;;;18.90;9.27;;;;;;;;;;5092865;28;19934;-68
2022/03/18 10:32:54;;;;;;;21.83;8.90;;;;;;;;;;5094049;28;20055;-67
2022/03/18 10:38:28;;;;;;;17.08;8.23;;;;;;;;;;5093429;28;20040;-68
2022/03/18 10:40:55;;;;;;;17.17;7.97;;;;;;;;;;5093313;28;20043;-67
2022/03/18 10:43:21;;;;;;;21.70;8.77;;;;;;;;;;5092782;28;20040;-68
2022/03/18 10:46:06;;;;;;;17.55;9.65;;;;;;;;;;5093260;28;20036;-66
2022/03/18 10:48:33;;;;;;;18.90;9.45;;;;;;;;;;5092671;28;20063;-66
2022/03/18 10:51:04;;;;;;;20.30;9.48;;;;;;;;;;5092143;28;20044;-66
2022/03/18 10:53:30;;;;;;;21.73;10.57;;;;;;;;;;5092906;28;20370;-67
2022/03/18 10:56:02;;;;;;;19.13;9.50;;;;;;;;;;5092909;28;20048;-66
2022/03/18 10:58:32;;;;;;;15.00;8.32;;;;;;;;;;5091945;28;20110;-65
2022/03/18 11:00:59;;;;;;;14.13;7.70;;;;;;;;;;5091437;28;20654;-67
2022/03/18 11:03:26;;;;;;;18.33;8.27;;;;;;;;;;5093977;28;20403;-68
2022/03/18 11:05:52;;;;;;;15.82;7.68;;;;;;;;;;5092093;28;20067;-66
2022/03/18 11:08:22;;;;;;;22.70;8.98;;;;;;;;;;5093344;28;20382;-67
2022/03/18 11:13:59;;;;;;;18.65;9.05;;;;;;;;;;5092607;28;20059;-67
2022/03/18 11:16:28;;;;;;;17.65;8.52;;;;;;;;;;5092611;28;20111;-67
2022/03/18 11:18:54;;;;;;;13.30;7.97;;;;;;;;;;5093337;28;20044;-67
2022/03/18 11:21:24;;;;;;;20.05;8.25;;;;;;;;;;5092869;28;20044;-67
2022/03/18 11:23:55;;;;;;;13.63;7.97;;;;;;;;;;5074913;28;20442;-67
2022/03/18 11:26:21;;;;;;;20.95;8.82;;;;;;;;;;5092409;28;20048;-67
2022/03/18 11:29:05;;;;;;;14.05;7.82;;;;;;;;;;5090906;28;20036;-67
2022/03/18 11:31:33;;;;;;;16.58;8.02;;;;;;;;;;5074423;28;20051;-68
2022/03/18 11:34:13;;;;;;;19.70;8.02;;;;;;;;;;5092506;28;20040;-68
2022/03/18 11:36:45;;;;;;;14.55;7.35;;;;;;;;;;5091718;28;20051;-69
2022/03/18 11:39:11;;;;;;;17.98;7.80;;;;;;;;;;5092754;28;20502;-69
2022/03/18 11:41:53;;;;;;;15.52;7.32;;;;;;;;;;5093216;28;20391;-68
2022/03/18 11:44:19;;;;;;;;;;;;;;;;;;5092580;28;20093;-68
2022/03/18 11:46:47;;;;;;;17.92;7.45;;;;;;;;;;5091959;28;20595;-68
2022/03/18 11:49:13;;;;;;;12.63;7.72;;;;;;;;;;5092831;28;20494;-70
2022/03/18 11:51:44;;;;;;;16.50;7.93;;;;;;;;;;5092016;28;20639;-68
2022/03/18 11:54:12;;;;;;;20.05;8.05;;;;;;;;;;5092743;28;20055;-68
2022/03/18 11:56:46;;;;;;;14.48;7.40;;;;;;;;;;5092332;28;20044;-69
2022/03/18 11:59:27;;;;;;;18.92;7.13;;;;;;;;;;5091806;28;20058;-69
2022/03/18 12:02:04;;;;;;;19.50;7.05;;;;;;;;;;5092358;28;20467;-69
2022/03/18 12:04:39;;;;;;;13.00;6.63;;;;;;;;;;5091324;28;20054;-68
2022/03/18 12:07:51;;;;;;;12.65;6.47;;;;;;;;;;5092150;28;20059;-68
2022/03/18 12:10:11;;;;;;;19.17;6.78;;;;;;;;;;5091865;28;20539;-67
2022/03/18 12:12:37;;;;;;;17.05;6.63;;;;;;;;;;5091579;28;20532;-68
2022/03/18 12:15:09;;;;;;;13.98;6.45;;;;;;;;;;5091619;28;20040;-69
2022/03/18 12:17:42;;;;;;;11.85;5.28;;;;;;;;;;5090404;28;20036;-71
2022/03/18 12:20:08;;;;;;;;;;;;;;;;;;5091625;28;20040;-69
2022/03/18 12:22:37;;;;;;;15.98;4.53;;;;;;;;;;5092354;28;19923;-69
2022/03/18 12:25:04;;;;;;;9.98;3.95;;;;;;;;;;5092261;28;20070;-68
2022/03/18 12:27:36;;;;;;;10.80;4.15;;;;;;;;;;5090892;28;20044;-69
2022/03/18 12:30:04;;;;;;;12.80;4.75;;;;;;;;;;5090448;28;20050;-69
2022/03/18 12:32:30;;;;;;;11.02;3.50;;;;;;;;;;5091976;28;20047;-69
2022/03/18 12:34:57;;;;;;;15.35;3.30;;;;;;;;;;5090443;28;20440;-69
2022/03/18 12:37:30;;;;;;;11.68;3.10;;;;;;;;;;5091866;28;20036;-69
2022/03/18 12:40:07;;;;;;;12.68;3.38;;;;;;;;;;5091809;28;20541;-69
2022/03/18 12:42:45;;;;;;;11.30;3.92;;;;;;;;;;5089501;28;20566;-69
2022/03/18 12:45:12;;;;;;;12.85;4.30;;;;;;;;;;5090427;28;20714;-69
2022/03/18 12:47:38;;;;;;;11.25;4.07;;;;;;;;;;5091296;28;20067;-69
2022/03/18 12:50:05;;;;;;;10.43;3.58;;;;;;;;;;5091078;28;20065;-69
2022/03/18 12:52:31;;;;;;;8.38;3.65;;;;;;;;;;5090200;28;20065;-70
2022/03/18 12:55:08;;;;;;;7.88;3.25;;;;;;;;;;5091008;28;20048;-69
2022/03/18 12:57:35;;;;;;;11.30;3.45;;;;;;;;;;5090491;28;20142;-69
2022/03/18 13:00:01;;;;;;;11.90;3.90;;;;;;;;;;5090030;28;20047;-69
2022/03/18 13:02:27;;;;;;;6.85;2.92;;;;;;;;;;5091290;28;20036;-70
2022/03/18 13:05:05;;;;;;;10.30;3.95;;;;;;;;;;5089299;28;20062;-71
2022/03/18 13:07:31;;;;;;;11.93;3.90;;;;;;;;;;5089778;28;20108;-70
2022/03/18 13:09:57;;;;;;;9.80;3.88;;;;;;;;;;5090539;28;20051;-69
2022/03/18 13:12:27;;;;;;;13.80;3.22;;;;;;;;;;5090744;28;20036;-69
2022/03/18 13:14:54;;;;;;;9.85;3.20;;;;;;;;;;5091103;28;20036;-69
2022/03/18 13:17:32;;;;;;;10.93;3.55;;;;;;;;;;5089919;28;20086;-69
2022/03/18 13:19:58;;;;;;;9.15;3.65;;;;;;;;;;5090607;28;20437;-69
2022/03/18 13:22:27;;;;;;;10.00;3.58;;;;;;;;;;5090119;28;20537;-69
2022/03/18 13:24:55;;;;;;;13.00;3.63;;;;;;;;;;5091288;28;20047;-69
2022/03/18 13:27:22;;;;;;;9.10;3.88;;;;;;;;;;5074910;28;20040;-69
2022/03/18 13:32:51;;;;;;;7.53;2.28;;;;;;;;;;5090971;28;20482;-69
2022/03/18 13:35:18;;;;;;;9.32;3.20;;;;;;;;;;5090129;28;20136;-69
2022/03/18 13:38:02;;;;;;;7.20;3.08;;;;;;;;;;5089558;28;20047;-69
2022/03/18 13:40:28;;;;;;;7.75;3.00;;;;;;;;;;5090573;28;20040;-70
2022/03/18 13:42:58;;;;;;;11.48;3.70;;;;;;;;;;5090710;28;20410;-68
2022/03/18 13:45:26;;;;;;;12.30;3.08;;;;;;;;;;5091697;28;20043;-69
2022/03/18 13:47:52;;;;;;;14.50;2.92;;;;;;;;;;5093275;28;20039;-68
2022/03/18 13:50:19;;;;;;;8.70;2.85;;;;;;;;;;5094917;28;20131;-70
2022/03/18 13:52:46;;;;;;;9.63;2.83;;;;;;;;;;5094943;28;20044;-69
2022/03/18 13:55:28;;;;;;;11.65;2.83;;;;;;;;;;5093968;28;20047;-69
2022/03/18 13:57:55;;;;;;;9.50;3.03;;;;;;;;;;5094704;28;20082;-71
2022/03/18 14:00:25;;;;;;;6.75;2.92;;;;;;;;;;5087874;28;20044;-69
2022/03/18 14:03:03;;;;;;;12.18;3.70;;;;;;;;;;5094695;28;20046;-69
2022/03/18 14:05:29;;;;;;;11.30;3.38;;;;;;;;;;5094422;28;20048;-70
2022/03/18 14:07:56;;;;;;;9.05;3.28;;;;;;;;;;5095101;28;20038;-70
2022/03/18 14:10:34;;;;;;;10.23;3.38;;;;;;;;;;5093820;28;20051;-70
2022/03/18 14:13:08;;;;;;;9.88;3.42;;;;;;;;;;5091235;28;20074;-70
2022/03/18 14:15:38;;;;;;;9.35;3.35;;;;;;;;;;5092785;28;20055;-70
2022/03/18 14:18:08;;;;;;;8.93;3.40;;;;;;;;;;5093826;28;20040;-69
2022/03/18 14:20:59;;;;;;;8.98;3.45;;;;;;;;;;5092599;28;20063;-69
2022/03/18 14:23:29;;;;;;;7.95;3.30;;;;;;;;;;5090209;28;20052;-69
2022/03/18 14:25:56;;;;;;;9.60;3.30;;;;;;;;;;5092292;28;20068;-69
2022/03/18 14:28:29;;;;;;;8.48;3.17;;;;;;;;;;5092996;28;20044;-68
2022/03/18 14:30:56;;;;;;;7.13;2.38;;;;;;;;;;5094154;28;20040;-68
2022/03/18 14:33:23;;;;;;;6.97;2.45;;;;;;;;;;5093764;28;20044;-68
2022/03/18 14:35:49;;;;;;;6.60;2.88;;;;;;;;;;5092967;28;20447;-67
2022/03/18 14:38:16;;;;;;;6.97;2.53;;;;;;;;;;5094635;28;20078;-68
2022/03/18 14:40:42;;;;;;;7.90;3.17;;;;;;;;;;5090744;28;20040;-69
2022/03/18 14:43:08;;;;;;;14.98;3.25;;;;;;;;;;5088711;28;20067;-68
2022/03/18 14:45:34;;;;;;;10.13;3.05;;;;;;;;;;5094104;28;20508;-67
2022/03/18 14:48:01;;;;;;;9.38;2.83;;;;;;;;;;5093542;28;20040;-67